Time;durP1;ratioP1;P1;durP2;ratioP2;P2;SDS_P1;SDS_P2;PMS_P1;PMS_P2;Temp;Humidity;BMP_temperature;BMP_pressure;BME280_temperature;BME280_humidity;BME280_pressure;Samples;Min_cycle;Max_cycle;Signal;HPM_P1;HPM_P2
2022/08/09 00:00:50;;;;;;;;;;;;;;;17.38;75.43;101468.38;5019157;28;1801;-86
2022/08/09 00:03:15;;;;;;;;;;;;;;;17.46;75.54;101469.63;5017909;28;1482;-85
2022/08/09 00:05:41;;;;;;;;;;;;;;;17.60;75.08;101465.78;5021106;28;1944;-86
2022/08/09 00:08:09;;;;;;;;;;;;;;;17.69;73.48;101463.97;5013782;28;1797;-86
2022/08/09 00:10:34;;;;;;;;;;;;;;;17.48;74.40;101468.22;5019662;28;1524;-86
2022/08/09 00:12:59;;;;;;;;;;;;;;;17.29;74.41;101467.41;5014469;28;1495;-86
2022/08/09 00:15:24;;;;;;;;;;;;;;;17.17;75.22;101445.78;5015319;28;1208;-85
2022/08/09 00:17:50;;;;;;;;;;;;;;;17.29;75.74;101462.72;5012719;28;1770;-85
2022/08/09 00:20:15;;;;;;;;;;;;;;;17.20;76.24;101461.75;5019415;28;1637;-87
2022/08/09 00:22:40;;;;;;;;;;;;;;;17.24;76.18;101461.97;5020691;28;1714;-85
2022/08/09 00:25:06;;;;;;;;;;;;;;;17.23;75.89;101466.69;5017376;28;1886;-86
2022/08/09 00:27:31;;;;;;;;;;;;;;;17.14;75.53;101464.91;5016133;28;1197;-86
2022/08/09 00:29:57;;;;;;;;;;;;;;;17.17;75.95;101456.00;5013424;28;1476;-85
2022/08/09 00:32:22;;;;;;;;;;;;;;;17.12;75.20;101456.06;5009485;28;1294;-86
2022/08/09 00:34:47;;;;;;;;;;;;;;;17.07;75.44;101457.00;5018770;28;1311;-85
2022/08/09 00:37:13;;;;;;;;;;;;;;;17.02;75.35;101454.28;5020698;28;1247;-85
2022/08/09 00:39:38;;;;;;;;;;;;;;;16.99;76.23;101443.84;5021053;28;1174;-85
2022/08/09 00:42:04;;;;;;;;;;;;;;;17.04;75.86;101452.06;5020640;28;1292;-86
2022/08/09 00:44:29;;;;;;;;;;;;;;;16.93;75.82;101434.78;5017683;28;1987;-86
2022/08/09 00:46:54;;;;;;;;;;;;;;;16.85;75.64;101451.22;5021114;28;1157;-86
2022/08/09 00:49:20;;;;;;;;;;;;;;;16.76;76.80;101455.81;5019365;28;1435;-86
2022/08/09 00:51:45;;;;;;;;;;;;;;;16.96;76.24;101449.97;5004100;28;1686;-86
2022/08/09 00:54:10;;;;;;;;;;;;;;;17.02;75.67;101455.13;5006746;28;1380;-86
2022/08/09 00:56:35;;;;;;;;;;;;;;;16.84;75.94;101460.69;5021016;28;1925;-85
2022/08/09 00:59:00;;;;;;;;;;;;;;;16.69;76.59;101460.88;5017824;28;1566;-86
2022/08/09 01:01:27;;;;;;;;;;;;;;;16.56;77.19;101465.19;5020231;28;1479;-85
2022/08/09 01:03:56;;;;;;;;;;;;;;;16.65;76.56;101460.66;5019987;28;1911;-86
2022/08/09 01:06:27;;;;;;;;;;;;;;;16.53;76.31;101455.53;5013640;28;1327;-86
2022/08/09 01:09:02;;;;;;;;;;;;;;;16.50;76.41;101460.84;5018752;28;1220;-84
2022/08/09 01:11:31;;;;;;;;;;;;;;;16.67;76.15;101461.19;5019881;28;1174;-86
2022/08/09 01:13:59;;;;;;;;;;;;;;;16.63;76.90;101460.97;5023339;28;1709;-85
2022/08/09 01:16:28;;;;;;;;;;;;;;;16.63;76.95;101463.72;5020650;28;1409;-85
2022/08/09 01:18:57;;;;;;;;;;;;;;;16.59;76.81;101472.84;5021045;28;1653;-85
2022/08/09 01:21:28;;;;;;;;;;;;;;;16.53;77.00;101468.53;5023114;28;1502;-85
2022/08/09 01:23:59;;;;;;;;;;;;;;;16.41;77.31;101466.22;5016298;28;1898;-85
2022/08/09 01:26:43;;;;;;;;;;;;;;;16.30;77.01;101469.38;5004811;28;1403;-85
2022/08/09 01:29:10;;;;;;;;;;;;;;;16.40;77.41;101466.50;5023851;28;1650;-85
2022/08/09 01:31:36;;;;;;;;;;;;;;;16.48;76.62;101471.38;5014849;28;1470;-85
2022/08/09 01:34:02;;;;;;;;;;;;;;;16.44;76.22;101473.06;5020671;28;1543;-85
2022/08/09 01:36:29;;;;;;;;;;;;;;;16.28;77.12;101473.25;5020427;28;1423;-85
2022/08/09 01:38:55;;;;;;;;;;;;;;;16.32;77.40;101475.44;5015424;28;1745;-84
2022/08/09 01:41:27;;;;;;;;;;;;;;;16.15;78.21;101471.22;5002991;28;1327;-84
2022/08/09 01:43:53;;;;;;;;;;;;;;;16.06;77.96;101474.91;5004193;28;1959;-85
2022/08/09 01:46:23;;;;;;;;;;;;;;;15.91;77.49;101478.66;5018597;28;1590;-85
2022/08/09 01:48:49;;;;;;;;;;;;;;;15.98;78.16;101468.09;5021842;28;1192;-85
2022/08/09 01:51:16;;;;;;;;;;;;;;;15.88;78.07;101460.75;5020799;28;1376;-85
2022/08/09 01:53:42;;;;;;;;;;;;;;;15.91;78.27;101462.09;5020551;28;1459;-85
2022/08/09 01:56:09;;;;;;;;;;;;;;;15.96;77.93;101472.28;5023121;28;1066;-85
2022/08/09 01:58:35;;;;;;;;;;;;;;;15.94;77.64;101461.50;5009117;28;1649;-85
2022/08/09 02:01:01;;;;;;;;;;;;;;;15.96;78.02;101462.06;5018320;28;1269;-86
2022/08/09 02:03:28;;;;;;;;;;;;;;;15.95;77.76;101468.69;5024299;28;1375;-85
2022/08/09 02:05:54;;;;;;;;;;;;;;;16.09;77.51;101466.84;5022603;28;1886;-85
2022/08/09 02:08:21;;;;;;;;;;;;;;;16.10;77.35;101471.25;5005099;28;1420;-85
2022/08/09 02:10:48;;;;;;;;;;;;;;;16.06;77.13;101467.47;5023152;28;1463;-86
2022/08/09 02:13:15;;;;;;;;;;;;;;;15.97;77.30;101479.44;5014323;28;1530;-85
2022/08/09 02:15:42;;;;;;;;;;;;;;;15.84;78.49;101467.13;5022432;28;1023;-86
2022/08/09 02:18:07;;;;;;;;;;;;;;;15.88;77.51;101465.44;5018121;28;1518;-85
2022/08/09 02:20:35;;;;;;;;;;;;;;;15.74;77.95;101467.22;5007844;28;1522;-86
2022/08/09 02:23:03;;;;;;;;;;;;;;;15.70;79.03;101471.72;5018135;28;1676;-86
2022/08/09 02:25:33;;;;;;;;;;;;;;;15.58;78.97;101474.84;5020783;28;1965;-85
2022/08/09 02:28:02;;;;;;;;;;;;;;;15.51;79.47;101480.69;5019430;28;1502;-86
2022/08/09 02:30:30;;;;;;;;;;;;;;;15.42;79.56;101476.06;5023080;28;1404;-86
2022/08/09 02:32:56;;;;;;;;;;;;;;;15.57;79.46;101477.91;5023479;28;1431;-86
2022/08/09 02:35:26;;;;;;;;;;;;;;;15.71;78.83;101476.94;5021770;28;1646;-85
2022/08/09 02:37:54;;;;;;;;;;;;;;;15.61;79.11;101478.97;5022070;28;1292;-86
2022/08/09 02:40:21;;;;;;;;;;;;;;;15.34;79.33;101488.53;5021941;28;1439;-85
2022/08/09 02:42:48;;;;;;;;;;;;;;;15.44;79.62;101484.88;5021150;28;1455;-85
2022/08/09 02:45:14;;;;;;;;;;;;;;;15.58;78.79;101487.81;5025240;28;1894;-85
2022/08/09 02:47:41;;;;;;;;;;;;;;;15.47;79.61;101487.91;5022032;28;1591;-85
2022/08/09 02:50:14;;;;;;;;;;;;;;;15.36;79.60;101480.81;5020687;28;1388;-85
2022/08/09 02:53:00;;;;;;;;;;;;;;;15.24;79.40;101485.03;5042456;23;1656;-86
2022/08/09 02:55:46;;;;;;;;;;;;;;;15.30;79.95;101484.72;5018134;28;1587;-87
2022/08/09 02:58:12;;;;;;;;;;;;;;;15.40;79.99;101479.09;5019063;28;1386;-86
2022/08/09 03:00:39;;;;;;;;;;;;;;;15.55;79.89;101480.13;5019075;28;1704;-87
2022/08/09 03:03:40;;;;;;;;;;;;;;;;;;;;;
2022/08/09 03:06:17;;;;;;;;;;;;;;;15.36;79.55;101488.25;4974599;28;1898;-86
2022/08/09 03:08:53;;;;;;;;;;;;;;;15.22;79.67;101481.78;4993295;28;1418;-86
2022/08/09 03:11:30;;;;;;;;;;;;;;;14.96;80.28;101478.38;4997681;28;1341;-87
2022/08/09 03:13:56;;;;;;;;;;;;;;;15.01;80.11;101479.16;4993158;28;1393;-85
2022/08/09 03:22:38;;;;;;;;;;;;;;;15.24;79.59;101485.03;4994191;28;1574;-87
2022/08/09 03:28:13;;;;;;;;;;;;;;;15.08;80.10;101482.41;4996046;28;1829;-88
2022/08/09 03:30:44;;;;;;;;;;;;;;;14.73;79.78;101488.97;4999690;28;1774;-88
2022/08/09 03:33:10;;;;;;;;;;;;;;;14.88;80.99;101482.56;4996886;28;1506;-87
2022/08/09 03:35:35;;;;;;;;;;;;;;;14.91;80.61;101486.66;4992805;28;1754;-88
2022/08/09 03:38:00;;;;;;;;;;;;;;;14.73;79.34;101490.88;4997407;28;1496;-87
2022/08/09 03:40:26;;;;;;;;;;;;;;;14.80;80.76;101496.13;4998145;28;1623;-87
2022/08/09 03:42:51;;;;;;;;;;;;;;;14.67;79.92;101492.03;4997570;28;1576;-88
2022/08/09 03:45:16;;;;;;;;;;;;;;;14.66;79.82;101490.38;4998495;28;1886;-88
2022/08/09 03:47:42;;;;;;;;;;;;;;;14.76;79.84;101496.66;4998875;28;1507;-88
2022/08/09 03:50:08;;;;;;;;;;;;;;;14.81;80.35;101501.31;4997736;28;1418;-88
2022/08/09 03:52:34;;;;;;;;;;;;;;;14.59;81.05;101500.91;4997208;28;1421;-89
2022/08/09 03:55:01;;;;;;;;;;;;;;;14.66;80.44;101504.97;4996047;28;1706;-87
2022/08/09 03:57:26;;;;;;;;;;;;;;;14.64;80.67;101504.44;4997547;28;1432;-87
2022/08/09 03:59:52;;;;;;;;;;;;;;;14.67;79.84;101503.88;4998879;28;1492;-87
2022/08/09 04:02:18;;;;;;;;;;;;;;;14.50;80.51;101500.66;4997696;28;1726;-87
2022/08/09 04:04:43;;;;;;;;;;;;;;;14.22;82.51;101504.03;4998990;28;1910;-88
2022/08/09 04:07:08;;;;;;;;;;;;;;;14.23;82.38;101506.50;4998443;28;1527;-88
2022/08/09 04:09:33;;;;;;;;;;;;;;;14.39;81.88;101504.56;4996808;28;1180;-88
2022/08/09 04:12:09;;;;;;;;;;;;;;;14.44;82.42;101506.47;4997623;28;1261;-88
2022/08/09 04:14:35;;;;;;;;;;;;;;;14.39;83.77;101507.31;4996373;28;1738;-88
2022/08/09 04:17:00;;;;;;;;;;;;;;;14.54;81.44;101514.72;4998774;28;1463;-87
2022/08/09 04:19:25;;;;;;;;;;;;;;;14.66;81.66;101512.44;4996954;28;1143;-88
2022/08/09 04:21:50;;;;;;;;;;;;;;;14.51;81.48;101520.78;4991807;28;1389;-87
2022/08/09 04:24:15;;;;;;;;;;;;;;;14.60;81.16;101519.91;4996814;28;1938;-86
2022/08/09 04:26:40;;;;;;;;;;;;;;;14.65;82.71;101517.13;5001762;28;1425;-88
2022/08/09 04:29:05;;;;;;;;;;;;;;;14.73;81.52;101521.19;4999376;28;1476;-88
2022/08/09 04:31:31;;;;;;;;;;;;;;;14.71;82.20;101518.75;5000142;28;1742;-88
2022/08/09 04:33:57;;;;;;;;;;;;;;;14.57;82.19;101514.94;4991704;28;1448;-87
2022/08/09 04:36:23;;;;;;;;;;;;;;;14.36;83.52;101518.88;4995891;28;1519;-87
2022/08/09 04:38:48;;;;;;;;;;;;;;;14.34;83.73;101516.41;4994601;28;1738;-86
2022/08/09 04:41:13;;;;;;;;;;;;;;;14.37;82.61;101518.56;4994843;28;1122;-86
2022/08/09 04:43:39;;;;;;;;;;;;;;;14.43;83.23;101519.41;4997118;28;1172;-87
2022/08/09 04:46:04;;;;;;;;;;;;;;;14.38;83.72;101524.91;4992080;28;1958;-86
2022/08/09 04:48:29;;;;;;;;;;;;;;;14.49;82.69;101517.47;5010526;28;1794;-84
2022/08/09 04:50:54;;;;;;;;;;;;;;;14.44;83.72;101523.84;4995002;28;1427;-85
2022/08/09 04:53:19;;;;;;;;;;;;;;;14.51;83.34;101520.78;4995211;28;1359;-86
2022/08/09 04:55:44;;;;;;;;;;;;;;;14.66;82.23;101518.75;4995568;28;928;-84
2022/08/09 04:58:09;;;;;;;;;;;;;;;14.76;82.53;101523.41;4995374;28;1187;-85
2022/08/09 05:00:35;;;;;;;;;;;;;;;14.70;83.20;101517.09;4992828;28;1453;-84
2022/08/09 05:03:01;;;;;;;;;;;;;;;14.58;83.72;101519.34;4990853;28;1351;-85
2022/08/09 05:05:27;;;;;;;;;;;;;;;14.56;83.99;101532.59;4993906;28;1899;-85
2022/08/09 05:07:53;;;;;;;;;;;;;;;14.59;83.29;101532.03;4993423;28;1699;-83
2022/08/09 05:10:18;;;;;;;;;;;;;;;14.57;83.61;101528.72;4987755;28;1729;-84
2022/08/09 05:12:43;;;;;;;;;;;;;;;14.51;84.75;101529.84;4995379;28;1610;-84
2022/08/09 05:15:08;;;;;;;;;;;;;;;14.72;84.01;101533.34;4993367;28;1784;-85
2022/08/09 05:17:33;;;;;;;;;;;;;;;14.49;83.91;101531.22;4993186;28;1812;-85
2022/08/09 05:19:59;;;;;;;;;;;;;;;14.50;84.67;101530.97;4995131;28;1820;-85
2022/08/09 05:22:24;;;;;;;;;;;;;;;14.42;85.89;101527.97;4997253;28;2151;-86
2022/08/09 05:24:49;;;;;;;;;;;;;;;14.51;85.36;101531.78;4993072;28;1902;-85
2022/08/09 05:27:14;;;;;;;;;;;;;;;14.73;84.17;101534.97;4995779;28;2156;-89
2022/08/09 05:29:40;;;;;;;;;;;;;;;14.89;84.84;101544.00;5010054;28;897;-87
2022/08/09 05:32:05;;;;;;;;;;;;;;;14.93;84.53;101545.91;5006744;28;1771;-85
2022/08/09 05:34:30;;;;;;;;;;;;;;;14.86;84.32;101541.81;5006355;28;1346;-87
2022/08/09 05:36:56;;;;;;;;;;;;;;;15.00;84.33;101540.09;5006444;28;1481;-85
2022/08/09 05:39:22;;;;;;;;;;;;;;;15.04;85.49;101532.91;5007011;28;1447;-86
2022/08/09 05:41:47;;;;;;;;;;;;;;;15.10;85.58;101537.28;5009086;28;905;-87
2022/08/09 05:44:12;;;;;;;;;;;;;;;15.03;85.45;101543.09;5009004;28;1875;-87
2022/08/09 05:46:37;;;;;;;;;;;;;;;15.07;85.72;101546.94;5010570;28;857;-86
2022/08/09 05:49:02;;;;;;;;;;;;;;;15.17;85.86;101543.28;5010100;28;825;-87
2022/08/09 05:51:28;;;;;;;;;;;;;;;15.30;85.79;101548.19;5008860;28;1027;-87
2022/08/09 05:53:53;;;;;;;;;;;;;;;15.30;86.56;101547.34;5009070;28;1311;-87
2022/08/09 05:56:18;;;;;;;;;;;;;;;15.38;85.61;101547.56;5008281;28;1191;-86
2022/08/09 05:58:43;;;;;;;;;;;;;;;15.44;86.73;101548.34;5011894;28;893;-87
2022/08/09 06:01:09;;;;;;;;;;;;;;;15.41;87.66;101554.41;5013359;28;948;-86
2022/08/09 06:03:34;;;;;;;;;;;;;;;15.52;87.79;101558.75;5013037;28;1213;-86
2022/08/09 06:05:59;;;;;;;;;;;;;;;15.60;87.81;101558.19;5012882;28;1863;-87
2022/08/09 06:08:24;;;;;;;;;;;;;;;15.67;87.85;101552.31;5011973;28;649;-87
2022/08/09 06:10:50;;;;;;;;;;;;;;;15.76;87.35;101554.16;5009632;28;790;-88
2022/08/09 06:13:16;;;;;;;;;;;;;;;15.87;86.90;101554.91;5010551;28;1286;-86
2022/08/09 06:15:41;;;;;;;;;;;;;;;15.93;87.15;101547.41;5010745;28;1130;-86
2022/08/09 06:18:07;;;;;;;;;;;;;;;15.93;86.45;101558.44;5008800;28;927;-87
2022/08/09 06:20:32;;;;;;;;;;;;;;;16.01;84.71;101557.81;5009127;28;845;-85
2022/08/09 06:22:57;;;;;;;;;;;;;;;16.06;84.58;101553.09;5008170;28;1311;-85
2022/08/09 06:25:23;;;;;;;;;;;;;;;16.11;84.32;101558.53;5009031;28;1895;-86
2022/08/09 06:27:48;;;;;;;;;;;;;;;16.18;84.31;101549.91;5011443;28;909;-87
2022/08/09 06:30:13;;;;;;;;;;;;;;;16.22;84.51;101551.81;5010473;28;929;-86
2022/08/09 06:32:39;;;;;;;;;;;;;;;16.27;83.35;101550.91;5008621;28;1300;-87
2022/08/09 06:35:04;;;;;;;;;;;;;;;16.31;84.11;101556.69;5008852;28;992;-87
2022/08/09 06:37:29;;;;;;;;;;;;;;;16.35;84.12;101552.19;5008687;28;939;-86
2022/08/09 06:39:54;;;;;;;;;;;;;;;16.43;82.93;101551.56;5008730;28;1297;-86
2022/08/09 06:42:20;;;;;;;;;;;;;;;16.46;84.08;101559.28;5010141;28;1209;-86
2022/08/09 06:44:46;;;;;;;;;;;;;;;16.46;83.91;101551.81;5011653;28;1862;-86
2022/08/09 06:47:11;;;;;;;;;;;;;;;16.49;84.50;101558.69;5008442;28;829;-86
2022/08/09 06:49:36;;;;;;;;;;;;;;;16.51;83.58;101554.50;5008054;28;1031;-88
2022/08/09 06:52:01;;;;;;;;;;;;;;;16.53;82.53;101556.97;5006674;28;1055;-87
2022/08/09 06:54:26;;;;;;;;;;;;;;;16.64;82.01;101562.13;5005259;28;1366;-87
2022/08/09 06:56:51;;;;;;;;;;;;;;;16.69;82.90;101552.09;5011055;28;854;-86
2022/08/09 06:59:17;;;;;;;;;;;;;;;16.70;83.25;101554.59;5009456;28;1387;-86
2022/08/09 07:01:42;;;;;;;;;;;;;;;16.74;82.33;101557.59;5012242;28;1035;-87
2022/08/09 07:04:08;;;;;;;;;;;;;;;16.83;80.44;101561.34;5008783;28;1971;-86
2022/08/09 07:06:34;;;;;;;;;;;;;;;16.91;81.37;101558.75;5008684;28;818;-86
2022/08/09 07:08:59;;;;;;;;;;;;;;;16.91;80.94;101561.50;5011174;28;837;-88
2022/08/09 07:11:24;;;;;;;;;;;;;;;16.94;80.57;101563.66;5009532;28;1015;-86
2022/08/09 07:13:49;;;;;;;;;;;;;;;16.98;81.00;101561.97;5008265;28;1211;-88
2022/08/09 07:16:14;;;;;;;;;;;;;;;17.01;80.41;101566.88;5005803;28;991;-86
2022/08/09 07:18:39;;;;;;;;;;;;;;;17.08;82.54;101569.28;5006030;28;988;-85
2022/08/09 07:21:05;;;;;;;;;;;;;;;17.07;81.22;101567.66;5007085;28;667;-87
2022/08/09 07:23:30;;;;;;;;;;;;;;;17.14;81.39;101568.09;5011545;28;1312;-87
2022/08/09 07:25:55;;;;;;;;;;;;;;;17.20;81.66;101564.13;5011657;28;1878;-87
2022/08/09 07:28:20;;;;;;;;;;;;;;;17.19;79.81;101559.72;5007413;28;810;-86
2022/08/09 07:30:45;;;;;;;;;;;;;;;17.17;80.14;101561.16;5004390;28;992;-87
2022/08/09 07:33:10;;;;;;;;;;;;;;;17.23;80.35;101565.47;5004985;28;1202;-86
2022/08/09 07:35:36;;;;;;;;;;;;;;;17.26;81.30;101575.97;5004630;28;1011;-87
2022/08/09 07:38:01;;;;;;;;;;;;;;;17.31;81.65;101568.41;5006053;28;805;-85
2022/08/09 07:40:26;;;;;;;;;;;;;;;17.31;80.57;101562.03;5007492;28;1060;-87
2022/08/09 07:42:53;;;;;;;;;;;;;;;17.31;79.75;101557.31;5006612;28;1196;-88
2022/08/09 07:45:24;;;;;;;;;;;;;;;17.35;79.50;101563.88;5003434;28;1936;-86
2022/08/09 07:47:49;;;;;;;;;;;;;;;17.47;79.37;101560.69;5001302;28;1245;-87
2022/08/09 07:50:14;;;;;;;;;;;;;;;17.51;79.54;101561.72;5007021;28;850;-87
2022/08/09 07:52:40;;;;;;;;;;;;;;;17.59;77.37;101561.03;5009140;28;1216;-87
2022/08/09 07:55:05;;;;;;;;;;;;;;;17.63;76.34;101556.56;5004259;28;833;-86
2022/08/09 07:57:33;;;;;;;;;;;;;;;17.65;77.17;101557.09;5005155;28;943;-88
2022/08/09 07:59:58;;;;;;;;;;;;;;;17.72;78.53;101565.00;5009259;28;1623;-88
2022/08/09 08:02:23;;;;;;;;;;;;;;;17.71;77.72;101561.41;5008277;28;1224;-87
2022/08/09 08:04:48;;;;;;;;;;;;;;;17.73;77.67;101561.94;5006148;28;1854;-86
2022/08/09 08:07:13;;;;;;;;;;;;;;;17.80;77.29;101557.94;5005268;28;1035;-86
2022/08/09 08:09:39;;;;;;;;;;;;;;;17.87;76.34;101566.69;5005594;28;816;-86
2022/08/09 08:12:04;;;;;;;;;;;;;;;17.92;75.62;101561.06;5004083;28;967;-86
2022/08/09 08:14:29;;;;;;;;;;;;;;;18.06;75.85;101561.91;5002934;28;1180;-88
2022/08/09 08:16:54;;;;;;;;;;;;;;;18.13;74.88;101565.94;5018455;28;1188;-86
2022/08/09 08:19:19;;;;;;;;;;;;;;;18.14;74.80;101559.25;5002741;28;988;-87
2022/08/09 08:21:45;;;;;;;;;;;;;;;18.16;75.82;101553.44;5000416;28;1088;-86
2022/08/09 08:24:10;;;;;;;;;;;;;;;18.14;75.07;101552.91;5002693;28;1898;-88
2022/08/09 08:26:35;;;;;;;;;;;;;;;18.25;75.71;101556.31;5002345;28;1190;-86
2022/08/09 08:29:00;;;;;;;;;;;;;;;18.24;74.30;101547.16;5006272;28;790;-86
2022/08/09 08:31:25;;;;;;;;;;;;;;;18.26;74.88;101555.19;5004226;28;837;-87
2022/08/09 08:33:50;;;;;;;;;;;;;;;18.33;73.58;101555.59;5003150;28;1595;-86
2022/08/09 08:36:15;;;;;;;;;;;;;;;18.39;73.73;101543.28;5004560;28;676;-85
2022/08/09 08:38:41;;;;;;;;;;;;;;;18.41;74.73;101546.56;5004440;28;830;-88
2022/08/09 08:41:06;;;;;;;;;;;;;;;18.61;73.60;101557.28;5005334;28;853;-86
2022/08/09 08:43:31;;;;;;;;;;;;;;;18.71;73.96;101551.53;5003203;28;1263;-86
2022/08/09 08:46:01;;;;;;;;;;;;;;;18.83;73.68;101537.13;5003432;28;1943;-88
2022/08/09 08:48:26;;;;;;;;;;;;;;;18.89;71.65;101538.63;5003730;28;1024;-86
2022/08/09 08:50:51;;;;;;;;;;;;;;;18.87;73.27;101541.75;5002768;28;912;-86
2022/08/09 08:53:16;;;;;;;;;;;;;;;18.93;73.63;101539.69;5043874;23;1938;-84
2022/08/09 08:55:42;;;;;;;;;;;;;;;18.90;71.33;101543.06;5017249;28;1144;-84
2022/08/09 08:58:08;;;;;;;;;;;;;;;18.86;71.63;101537.34;5019047;28;868;-84
2022/08/09 09:00:34;;;;;;;;;;;;;;;18.94;72.65;101546.88;5017641;28;1397;-85
2022/08/09 09:02:59;;;;;;;;;;;;;;;19.01;72.57;101550.03;5017274;28;1382;-84
2022/08/09 09:05:25;;;;;;;;;;;;;;;19.03;71.47;101553.31;5018186;28;1978;-85
2022/08/09 09:07:51;;;;;;;;;;;;;;;19.03;71.01;101546.97;5019004;28;1031;-84
2022/08/09 09:10:16;;;;;;;;;;;;;;;19.04;72.14;101543.06;5019014;28;1346;-85
2022/08/09 09:12:43;;;;;;;;;;;;;;;19.21;70.23;101551.53;5018801;28;1194;-85
2022/08/09 09:15:08;;;;;;;;;;;;;;;19.49;70.29;101557.81;5016837;28;1249;-84
2022/08/09 09:17:34;;;;;;;;;;;;;;;19.44;68.23;101555.16;5016883;28;1315;-84
2022/08/09 09:19:59;;;;;;;;;;;;;;;19.57;68.22;101548.75;5016556;28;1291;-84
2022/08/09 09:22:25;;;;;;;;;;;;;;;19.58;67.58;101548.44;5018732;28;695;-84
2022/08/09 09:24:54;;;;;;;;;;;;;;;19.55;68.87;101551.03;5018416;28;1967;-85
2022/08/09 09:27:21;;;;;;;;;;;;;;;19.58;69.82;101555.94;5018703;28;1016;-84
2022/08/09 09:29:46;;;;;;;;;;;;;;;19.54;67.46;101550.22;5019977;28;924;-84
2022/08/09 09:32:12;;;;;;;;;;;;;;;19.54;67.99;101553.00;5020110;28;1015;-85
2022/08/09 09:34:38;;;;;;;;;;;;;;;19.44;68.25;101539.31;5021977;28;1232;-84
2022/08/09 09:37:04;;;;;;;;;;;;;;;19.63;66.97;101553.06;5021855;28;1216;-84
2022/08/09 09:39:29;;;;;;;;;;;;;;;19.79;66.53;101559.03;5021200;28;1302;-84
2022/08/09 09:41:55;;;;;;;;;;;;;;;19.65;65.96;101551.56;5021958;28;1156;-84
2022/08/09 09:44:28;;;;;;;;;;;;;;;19.65;65.65;101557.13;5022266;28;1961;-84
2022/08/09 09:47:02;;;;;;;;;;;;;;;19.69;65.32;101542.63;5023631;28;996;-85
2022/08/09 09:49:27;;;;;;;;;;;;;;;19.95;65.08;101552.78;5022459;28;1271;-85
2022/08/09 09:51:59;;;;;;;;;;;;;;;20.05;64.52;101553.63;5024102;28;1087;-84
2022/08/09 09:54:24;;;;;;;;;;;;;;;20.14;65.03;101560.91;5020173;28;2166;-84
2022/08/09 09:56:49;;;;;;;;;;;;;;;20.13;65.05;101558.44;4999986;28;1184;-85
2022/08/09 09:59:31;;;;;;;;;;;;;;;20.16;64.49;101557.81;5012387;28;739;-84
2022/08/09 10:02:00;;;;;;;;;;;;;;;20.06;65.22;101546.94;5021351;28;1004;-84
2022/08/09 10:04:26;;;;;;;;;;;;;;;20.24;68.83;101563.41;5001725;28;1906;-85
2022/08/09 10:06:51;;;;;;;;;;;;;;;20.24;66.63;101568.16;4999045;28;1255;-85
2022/08/09 10:09:16;;;;;;;;;;;;;;;20.27;66.23;101570.25;4999576;28;964;-84
2022/08/09 10:11:41;;;;;;;;;;;;;;;20.49;62.29;101559.13;4999951;28;1139;-84
2022/08/09 10:14:20;;;;;;;;;;;;;;;20.51;63.88;101556.00;4999694;28;1331;-84
2022/08/09 10:16:45;;;;;;;;;;;;;;;20.42;64.52;101558.75;5000397;28;840;-85
2022/08/09 10:19:11;;;;;;;;;;;;;;;20.38;64.06;101566.09;5000892;28;833;-84
2022/08/09 10:21:44;;;;;;;;;;;;;;;20.36;64.72;101563.63;5001150;28;1024;-85
2022/08/09 10:24:10;;;;;;;;;;;;;;;20.52;64.53;101554.84;4999034;28;1890;-84
2022/08/09 10:26:35;;;;;;;;;;;;;;;20.48;63.89;101553.88;4999198;28;1449;-85
2022/08/09 10:29:00;;;;;;;;;;;;;;;20.67;64.30;101546.09;5001039;28;1043;-84
2022/08/09 10:31:26;;;;;;;;;;;;;;;20.60;65.31;101535.41;4998954;28;1196;-85
2022/08/09 10:33:51;;;;;;;;;;;;;;;20.72;63.74;101543.97;5000242;28;1287;-84
2022/08/09 10:36:16;;;;;;;;;;;;;;;20.75;63.85;101545.28;5001026;28;942;-84
2022/08/09 10:38:43;;;;;;;;;;;;;;;20.72;64.13;101532.84;5000564;28;693;-85
2022/08/09 10:41:08;;;;;;;;;;;;;;;20.68;64.15;101536.56;4999525;28;1199;-85
2022/08/09 10:43:34;;;;;;;;;;;;;;;20.69;65.06;101541.00;5000079;28;1221;-84
2022/08/09 10:46:00;;;;;;;;;;;;;;;20.83;62.94;101529.75;5000995;28;1894;-84
2022/08/09 10:48:35;;;;;;;;;;;;;;;20.77;65.58;101529.06;4998612;28;1236;-84
2022/08/09 10:51:13;;;;;;;;;;;;;;;20.98;62.88;101530.09;5000749;28;1023;-85
2022/08/09 10:53:58;;;;;;;;;;;;;;;21.04;62.71;101536.31;4997974;28;1282;-84
2022/08/09 10:56:25;;;;;;;;;;;;;;;21.12;62.03;101532.72;4998677;28;1249;-84
2022/08/09 10:58:51;;;;;;;;;;;;;;;21.03;62.57;101535.50;5000298;28;841;-85
2022/08/09 11:01:32;;;;;;;;;;;;;;;20.99;63.48;101539.28;4999006;28;1319;-84
2022/08/09 11:04:09;;;;;;;;;;;;;;;21.06;63.07;101528.47;5001358;28;1220;-84
2022/08/09 11:06:38;;;;;;;;;;;;;;;21.00;62.23;101536.19;4999085;28;1338;-84
2022/08/09 11:09:04;;;;;;;;;;;;;;;21.01;62.84;101534.22;4998923;28;1247;-84
2022/08/09 11:11:59;;;;;;;;;;;;;;;21.03;63.09;101535.50;4998824;28;1307;-85
2022/08/09 11:14:36;;;;;;;;;;;;;;;21.08;64.59;101532.59;4994099;28;1362;-84
2022/08/09 11:17:02;;;;;;;;;;;;;;;21.07;61.53;101535.69;4999877;28;951;-84
2022/08/09 11:19:46;;;;;;;;;;;;;;;21.03;63.67;101534.69;4998999;28;1167;-84
2022/08/09 11:22:11;;;;;;;;;;;;;;;21.15;62.80;101538.47;4999560;28;984;-84
2022/08/09 11:24:56;;;;;;;;;;;;;;;21.21;62.62;101538.34;4998378;28;1898;-85
2022/08/09 11:27:29;;;;;;;;;;;;;;;21.42;62.35;101534.59;4994585;28;1204;-84
2022/08/09 11:29:55;;;;;;;;;;;;;;;21.49;62.01;101534.91;4998965;28;1324;-85
2022/08/09 11:32:39;;;;;;;;;;;;;;;21.45;59.20;101535.88;4998573;28;1215;-84
2022/08/09 11:35:18;;;;;;;;;;;;;;;21.48;60.06;101530.47;4999042;28;1217;-84
2022/08/09 11:37:44;;;;;;;;;;;;;;;21.48;60.18;101522.13;4999121;28;1189;-84
2022/08/09 11:40:10;;;;;;;;;;;;;;;21.48;61.90;101526.88;4999757;28;924;-84
2022/08/09 11:42:37;;;;;;;;;;;;;;;21.69;57.80;101529.81;4998832;28;1346;-85
2022/08/09 11:45:02;;;;;;;;;;;;;;;21.72;57.16;101523.56;4998516;28;1898;-85
2022/08/09 11:47:43;;;;;;;;;;;;;;;21.63;57.93;101528.31;5000066;28;964;-85
2022/08/09 11:50:08;;;;;;;;;;;;;;;21.71;60.25;101524.69;5000050;28;942;-84
2022/08/09 11:52:53;;;;;;;;;;;;;;;21.71;60.20;101524.69;4998555;28;1234;-84
2022/08/09 11:55:36;;;;;;;;;;;;;;;21.73;60.60;101520.44;4997342;28;1246;-85
2022/08/09 11:58:03;;;;;;;;;;;;;;;21.83;59.02;101517.31;5000907;28;798;-85
2022/08/09 12:00:30;;;;;;;;;;;;;;;21.87;58.73;101521.06;4999789;28;845;-85
2022/08/09 12:02:56;;;;;;;;;;;;;;;21.97;56.68;101517.13;4998202;28;1337;-84
2022/08/09 12:05:21;;;;;;;;;;;;;;;22.01;57.62;101518.13;4999918;28;1934;-84
2022/08/09 12:07:46;;;;;;;;;;;;;;;21.94;57.71;101508.59;4999719;28;1060;-85
2022/08/09 12:10:11;;;;;;;;;;;;;;;22.05;56.42;101516.28;5000497;28;830;-85
2022/08/09 12:12:46;;;;;;;;;;;;;;;21.97;57.07;101505.13;5000400;28;1292;-85
2022/08/09 12:15:19;;;;;;;;;;;;;;;21.96;59.20;101501.50;4999163;28;1342;-84
2022/08/09 12:17:45;;;;;;;;;;;;;;;22.24;57.42;101511.13;5006067;28;1288;-85
2022/08/09 12:20:12;;;;;;;;;;;;;;;22.31;55.76;101493.84;4999207;28;741;-85
2022/08/09 12:22:37;;;;;;;;;;;;;;;22.18;58.10;101506.91;4998823;28;1300;-85
2022/08/09 12:25:11;;;;;;;;;;;;;;;22.25;57.60;101504.41;4997546;28;1961;-84
2022/08/09 12:27:36;;;;;;;;;;;;;;;22.30;56.20;101496.97;4998531;28;909;-85
2022/08/09 12:30:02;;;;;;;;;;;;;;;22.33;56.65;101499.09;4997429;28;1165;-84
2022/08/09 12:32:27;;;;;;;;;;;;;;;22.34;57.97;101492.38;4997200;28;1159;-84
2022/08/09 12:34:58;;;;;;;;;;;;;;;22.33;57.84;101490.75;4996665;28;1223;-85
2022/08/09 12:37:29;;;;;;;;;;;;;;;22.38;58.14;101493.31;4998968;28;821;-84
2022/08/09 12:40:03;;;;;;;;;;;;;;;22.42;57.18;101488.72;4997103;28;1295;-85
2022/08/09 12:42:28;;;;;;;;;;;;;;;22.45;57.02;101488.06;4997001;28;1330;-85
2022/08/09 12:44:53;;;;;;;;;;;;;;;22.56;57.26;101483.72;4997603;28;1972;-84
2022/08/09 12:47:19;;;;;;;;;;;;;;;22.60;57.63;101479.94;4997960;28;798;-85
2022/08/09 12:50:15;;;;;;;;;;;;;;;22.69;57.96;101491.03;4996837;28;1291;-85
2022/08/09 12:52:56;;;;;;;;;;;;;;;22.72;56.11;101486.72;4998269;28;1135;-85
2022/08/09 12:55:25;;;;;;;;;;;;;;;22.74;54.25;101474.09;4997561;28;1347;-85
2022/08/09 12:57:51;;;;;;;;;;;;;;;22.77;53.98;101472.63;4997796;28;1310;-85
2022/08/09 13:00:19;;;;;;;;;;;;;;;22.85;55.03;101469.75;4999100;28;853;-85